createdAt,value
2022-10-23T00:01:37.579Z,99841.33
2022-10-23T00:04:17.322Z,99845.73
2022-10-23T00:05:28.351Z,99846.50
2022-10-23T00:06:37.463Z,99840.17
2022-10-23T00:09:10.805Z,99843.70
2022-10-23T00:11:37.297Z,99836.72
2022-10-23T00:12:47.275Z,99838.34
2022-10-23T00:13:59.868Z,99844.81
2022-10-23T00:16:27.477Z,99833.39
2022-10-23T00:17:36.090Z,99844.89
2022-10-23T00:18:45.680Z,99843.31
2022-10-23T00:21:29.416Z,99834.80
2022-10-23T00:23:56.312Z,99837.49
2022-10-23T00:26:22.749Z,99835.11
2022-10-23T00:28:51.977Z,99832.80
2022-10-23T00:31:20.566Z,99834.64
2022-10-23T00:33:45.690Z,99831.57
2022-10-23T00:36:13.632Z,99828.64
2022-10-23T00:38:42.423Z,99831.89
2022-10-23T00:39:51.353Z,99828.42
2022-10-23T00:41:01.126Z,99836.60
2022-10-23T00:42:18.091Z,99835.96
2022-10-23T00:46:21.086Z,99837.04
2022-10-23T00:48:45.615Z,99830.06
2022-10-23T00:51:10.386Z,99823.20
2022-10-23T00:52:20.384Z,99842.70
2022-10-23T00:53:30.421Z,99833.99
2022-10-23T00:55:59.227Z,99827.61
2022-10-23T00:58:29.462Z,99827.90
2022-10-23T01:00:57.056Z,99825.91
2022-10-23T01:02:06.493Z,99829.44
2022-10-23T01:03:18.579Z,99827.16
2022-10-23T01:05:54.261Z,99823.13
2022-10-23T01:08:53.016Z,99817.76
2022-10-23T01:11:35.872Z,99807.70
2022-10-23T01:14:33.321Z,99806.90
2022-10-23T01:17:26.168Z,99806.73
2022-10-23T01:20:27.640Z,99800.47
2022-10-23T01:23:26.075Z,99798.58
2022-10-23T01:26:29.990Z,99791.95
2022-10-23T01:29:15.752Z,99793.59
2022-10-23T01:32:00.867Z,99789.65
2022-10-23T01:34:37.645Z,99782.17
2022-10-23T01:37:11.733Z,99788.16
2022-10-23T01:39:44.690Z,99779.61
2022-10-23T01:42:30.763Z,99781.87
2022-10-23T01:45:22.583Z,99770.36
2022-10-23T01:47:52.184Z,99776.00
2022-10-23T01:49:04.416Z,99776.21
2022-10-23T01:50:15.517Z,99779.37
2022-10-23T01:51:28.524Z,99776.17
2022-10-23T01:53:58.855Z,99775.41
2022-10-23T01:55:12.451Z,99780.13
2022-10-23T01:57:45.140Z,99775.36
2022-10-23T02:00:16.050Z,99768.75
2022-10-23T02:01:36.478Z,99775.02
2022-10-23T02:04:09.160Z,99765.37
2022-10-23T02:06:38.415Z,99771.77
2022-10-23T02:09:04.797Z,99764.34
2022-10-23T02:11:38.864Z,99765.87
2022-10-23T02:14:45.504Z,99766.70
2022-10-23T02:16:08.417Z,99768.81
2022-10-23T02:19:03.587Z,99765.72
2022-10-23T02:22:02.646Z,99767.02
2022-10-23T02:24:41.149Z,99761.72
2022-10-23T02:27:40.022Z,99764.38
2022-10-23T02:30:18.932Z,99758.52
2022-10-23T02:32:51.588Z,99751.02
2022-10-23T02:34:02.386Z,99763.23
2022-10-23T02:36:29.329Z,99757.97
2022-10-23T02:38:56.273Z,99756.47
2022-10-23T02:40:08.102Z,99762.26
2022-10-23T02:43:00.191Z,99748.78
2022-10-23T02:46:14.131Z,99750.06
2022-10-23T02:49:28.284Z,99752.45
2022-10-23T02:52:08.908Z,99752.17
2022-10-23T02:53:33.325Z,99761.89
2022-10-23T02:56:30.516Z,99750.18
2022-10-23T02:59:04.350Z,99752.71
2022-10-23T03:00:17.785Z,99753.08
2022-10-23T03:04:16.291Z,99739.85
2022-10-23T03:06:49.055Z,99741.06
2022-10-23T03:07:59.530Z,99756.44
2022-10-23T03:10:25.853Z,99756.44
2022-10-23T03:11:36.262Z,99756.61
2022-10-23T03:14:03.152Z,99761.41
2022-10-23T03:15:14.108Z,99759.89
2022-10-23T03:16:25.134Z,99762.81
2022-10-23T03:17:36.544Z,99760.21
2022-10-23T03:20:01.259Z,99759.93
2022-10-23T03:22:47.227Z,99757.76
2022-10-23T03:25:12.977Z,99753.71
2022-10-23T03:27:38.139Z,99756.56
2022-10-23T03:28:48.336Z,99761.04
2022-10-23T03:31:13.909Z,99754.04
2022-10-23T03:33:39.202Z,99758.64
2022-10-23T03:36:07.077Z,99754.31
2022-10-23T03:38:33.302Z,99751.77
2022-10-23T03:40:57.377Z,99741.98
2022-10-23T03:43:22.067Z,99743.63
2022-10-23T03:44:35.076Z,99744.91
2022-10-23T03:46:58.793Z,99742.80
2022-10-23T03:49:25.171Z,99736.69
2022-10-23T03:51:52.188Z,99740.07
2022-10-23T03:54:22.323Z,99742.87
2022-10-23T03:56:46.929Z,99738.98
2022-10-23T03:59:11.518Z,99738.49
2022-10-23T04:00:22.153Z,99742.39
2022-10-23T04:02:47.826Z,99738.56
2022-10-23T04:03:58.331Z,99739.15
2022-10-23T04:06:24.886Z,99740.55
2022-10-23T04:08:53.451Z,99728.83
2022-10-23T04:11:18.748Z,99727.70
2022-10-23T04:13:45.084Z,99724.25
2022-10-23T04:16:17.666Z,99719.61
2022-10-23T04:18:40.885Z,99722.09
2022-10-23T04:19:51.189Z,99728.69
2022-10-23T04:22:17.366Z,99716.45
2022-10-23T04:24:46.151Z,99717.81
2022-10-23T04:27:13.849Z,99723.45
2022-10-23T04:29:37.387Z,99718.61
2022-10-23T04:32:01.958Z,99712.89
2022-10-23T04:33:11.729Z,99718.22
2022-10-23T04:35:36.550Z,99703.11
2022-10-23T04:38:02.958Z,99706.34
2022-10-23T04:40:28.219Z,99711.44
2022-10-23T04:42:54.277Z,99710.20
2022-10-23T04:45:19.486Z,99713.70
2022-10-23T04:46:29.428Z,99722.19
2022-10-23T04:48:52.988Z,99720.47
2022-10-23T04:51:20.528Z,99716.70
2022-10-23T04:53:49.175Z,99720.77
2022-10-23T04:57:10.241Z,99721.09
2022-10-23T04:59:41.020Z,99713.91
2022-10-23T05:02:06.263Z,99715.02
2022-10-23T05:04:31.020Z,99710.12
2022-10-23T05:07:49.725Z,99713.54
2022-10-23T05:10:33.911Z,99716.38
2022-10-23T05:13:00.471Z,99717.48
2022-10-23T05:15:25.890Z,99720.63
2022-10-23T05:19:26.419Z,99722.10
2022-10-23T05:22:15.864Z,99717.35
2022-10-23T05:24:50.593Z,99720.04
2022-10-23T05:27:20.327Z,99718.63
2022-10-23T05:29:48.223Z,99724.49
2022-10-23T05:32:18.953Z,99725.08
2022-10-23T05:34:45.547Z,99722.17
2022-10-23T05:37:15.424Z,99717.38
2022-10-23T05:39:42.201Z,99721.64
2022-10-23T05:42:14.071Z,99728.97
2022-10-23T05:43:27.217Z,99726.14
2022-10-23T05:45:59.708Z,99722.65
2022-10-23T05:48:45.139Z,99723.53
2022-10-23T05:51:56.212Z,99721.64
2022-10-23T05:54:29.704Z,99726.14
2022-10-23T05:56:56.078Z,99725.05
2022-10-23T05:58:07.410Z,99728.58
2022-10-23T06:01:30.663Z,99715.50
2022-10-23T06:04:00.294Z,99720.76
2022-10-23T06:06:26.237Z,99721.00
2022-10-23T06:08:50.730Z,99726.04
2022-10-23T06:11:17.055Z,99731.16
2022-10-23T06:13:46.676Z,99720.99
2022-10-23T06:17:36.543Z,99729.41
2022-10-23T06:20:03.699Z,99722.27
2022-10-23T06:22:30.908Z,99719.70
2022-10-23T06:24:59.383Z,99728.53
2022-10-23T06:27:34.866Z,99726.73
2022-10-23T06:30:07.064Z,99731.02
2022-10-23T06:32:33.780Z,99727.72
2022-10-23T06:35:07.242Z,99725.78
2022-10-23T06:37:34.177Z,99722.47
2022-10-23T06:40:34.906Z,99717.84
2022-10-23T06:43:01.480Z,99721.75
2022-10-23T06:45:01.145Z,99713.06
2022-10-23T06:48:17.207Z,99718.30
2022-10-23T06:50:52.517Z,99720.45
2022-10-23T06:53:18.180Z,99714.48
2022-10-23T06:55:50.064Z,99715.61
2022-10-23T06:56:59.623Z,99724.93
2022-10-23T06:59:28.095Z,99717.20
2022-10-23T07:03:05.593Z,99717.91
2022-10-23T07:04:15.393Z,99720.72
2022-10-23T07:05:25.239Z,99718.03
2022-10-23T07:06:35.411Z,99718.03
2022-10-23T07:08:59.683Z,99721.13
2022-10-23T07:12:25.075Z,99711.95
2022-10-23T07:14:52.954Z,99715.12
2022-10-23T07:17:30.337Z,99716.97
2022-10-23T07:19:57.116Z,99715.52
2022-10-23T07:22:22.934Z,99723.32
2022-10-23T07:25:01.069Z,99718.53
2022-10-23T07:27:31.508Z,99721.20
2022-10-23T07:29:59.912Z,99716.39
2022-10-23T07:32:27.806Z,99709.94
2022-10-23T07:35:12.778Z,99718.76
2022-10-23T07:37:40.409Z,99716.58
2022-10-23T07:40:08.420Z,99716.23
2022-10-23T07:41:19.765Z,99720.15
2022-10-23T07:43:43.355Z,99712.17
2022-10-23T07:46:26.473Z,99719.50
2022-10-23T07:48:50.525Z,99709.45
2022-10-23T07:51:20.491Z,99709.55
2022-10-23T07:53:46.465Z,99713.80
2022-10-23T07:57:01.904Z,99716.71
2022-10-23T08:00:21.017Z,99714.50
2022-10-23T08:02:57.488Z,99707.07
2022-10-23T08:05:23.578Z,99715.64
2022-10-23T08:07:53.078Z,99715.09
2022-10-23T08:10:19.547Z,99717.07
2022-10-23T08:12:46.143Z,99711.39
2022-10-23T08:15:12.350Z,99711.10
2022-10-23T08:17:40.943Z,99714.00
2022-10-23T08:20:13.375Z,99710.45
2022-10-23T08:22:40.259Z,99714.13
2022-10-23T08:25:11.485Z,99708.20
2022-10-23T08:27:37.701Z,99716.19
2022-10-23T08:30:03.010Z,99724.33
2022-10-23T08:32:32.182Z,99717.27
2022-10-23T08:34:58.214Z,99728.14
2022-10-23T08:37:36.398Z,99725.77
2022-10-23T08:40:01.505Z,99737.23
2022-10-23T08:43:14.210Z,99727.55
2022-10-23T08:46:01.271Z,99733.33
2022-10-23T08:48:43.177Z,99728.97
2022-10-23T08:51:58.705Z,99733.55
2022-10-23T08:55:13.173Z,99741.03
2022-10-23T08:58:15.466Z,99742.70
2022-10-23T09:00:49.817Z,99742.56
2022-10-23T09:03:18.246Z,99742.91
2022-10-23T09:06:07.508Z,99744.84
2022-10-23T09:08:49.811Z,99749.94
2022-10-23T09:11:36.488Z,99747.30
2022-10-23T09:12:46.527Z,99744.98
2022-10-23T09:15:34.506Z,99744.13
2022-10-23T09:18:19.700Z,99738.08
2022-10-23T09:20:47.929Z,99742.65
2022-10-23T09:21:57.530Z,99751.56
2022-10-23T09:24:45.610Z,99744.55
2022-10-23T09:27:17.579Z,99740.18
2022-10-23T09:29:54.280Z,99750.09
2022-10-23T09:32:33.992Z,99750.93
2022-10-23T09:33:58.239Z,99750.17
2022-10-23T09:36:27.476Z,99745.76
2022-10-23T09:39:00.683Z,99744.97
2022-10-23T09:40:16.647Z,99753.72
2022-10-23T09:43:18.101Z,99741.76
2022-10-23T09:45:48.961Z,99746.08
2022-10-23T09:47:12.042Z,99741.23
2022-10-23T09:48:21.687Z,99744.92
2022-10-23T09:50:54.476Z,99741.13
2022-10-23T09:53:35.511Z,99738.67
2022-10-23T09:54:49.154Z,99738.55
2022-10-23T09:57:27.797Z,99739.66
2022-10-23T10:00:16.580Z,99732.55
2022-10-23T10:02:46.377Z,99734.41
2022-10-23T10:05:25.897Z,99742.17
2022-10-23T10:08:05.036Z,99740.64
2022-10-23T10:10:35.098Z,99729.17
2022-10-23T10:11:53.691Z,99730.82
2022-10-23T10:15:58.792Z,99732.75
2022-10-23T10:17:36.502Z,99735.42
2022-10-23T10:20:26.359Z,99726.26
2022-10-23T10:23:27.900Z,99733.14
2022-10-23T10:24:41.944Z,99731.23
2022-10-23T10:27:40.574Z,99730.47
2022-10-23T10:32:03.048Z,99727.16
2022-10-23T10:34:57.310Z,99722.38
2022-10-23T10:37:55.753Z,99719.00
2022-10-23T10:40:32.135Z,99711.50
2022-10-23T10:43:36.686Z,99715.22
2022-10-23T10:44:52.394Z,99715.05
2022-10-23T10:52:06.437Z,99710.05
2022-10-23T10:54:50.472Z,99711.63
2022-10-23T10:59:05.634Z,99712.52
2022-10-23T11:01:50.530Z,99705.56
2022-10-23T11:03:19.014Z,99716.34
2022-10-23T11:06:12.207Z,99724.40
2022-10-23T11:08:56.154Z,99715.90
2022-10-23T11:11:21.836Z,99711.68
2022-10-23T11:12:30.752Z,99716.88
2022-10-23T11:14:58.105Z,99712.23
2022-10-23T11:17:39.748Z,99700.30
2022-10-23T11:20:30.337Z,99699.31
2022-10-23T11:23:13.853Z,99703.89
2022-10-23T11:28:08.569Z,99703.16
2022-10-23T11:31:35.311Z,99704.73
2022-10-23T11:34:23.960Z,99705.88
2022-10-23T11:37:21.332Z,99698.47
2022-10-23T11:40:09.967Z,99709.59
2022-10-23T11:41:25.309Z,99711.96
2022-10-23T11:44:03.709Z,99697.22
2022-10-23T11:47:04.043Z,99706.90
2022-10-23T11:50:12.244Z,99703.66
2022-10-23T11:53:13.626Z,99716.09
2022-10-23T11:54:21.332Z,99708.76
2022-10-23T11:55:32.703Z,99718.02
2022-10-23T11:59:52.224Z,99722.20
2022-10-23T12:02:38.402Z,99730.61
2022-10-23T12:05:25.411Z,99734.61
2022-10-23T12:09:54.320Z,99727.79
2022-10-23T12:12:31.316Z,99739.05
2022-10-23T12:13:47.096Z,99743.02
2022-10-23T12:15:09.001Z,99738.89
2022-10-23T12:17:47.144Z,99753.92
2022-10-23T12:20:27.763Z,99749.72
2022-10-23T12:21:39.453Z,99752.09
2022-10-23T12:23:16.930Z,99755.34
2022-10-23T12:26:22.211Z,99744.14
2022-10-23T12:29:08.372Z,99755.72
2022-10-23T12:31:48.164Z,99756.42
2022-10-23T12:35:03.273Z,99769.86
2022-10-23T12:38:10.164Z,99762.77
2022-10-23T12:39:31.078Z,99773.99
2022-10-23T12:41:56.569Z,99769.39
2022-10-23T12:44:34.071Z,99774.55
2022-10-23T12:45:44.487Z,99784.02
2022-10-23T12:46:56.255Z,99786.39
2022-10-23T12:48:06.959Z,99783.92
2022-10-23T12:50:33.923Z,99787.47
2022-10-23T12:51:45.377Z,99792.10
2022-10-23T12:54:21.497Z,99787.98
2022-10-23T12:56:49.707Z,99790.95
2022-10-23T12:58:00.444Z,99793.65
2022-10-23T13:00:25.952Z,99797.56
2022-10-23T13:03:02.824Z,99801.70
2022-10-23T13:04:16.395Z,99803.37
2022-10-23T13:06:41.601Z,99807.20
2022-10-23T13:07:51.970Z,99811.75
2022-10-23T13:10:20.987Z,99811.32
2022-10-23T13:13:02.087Z,99811.27
2022-10-23T13:17:09.167Z,99817.94
2022-10-23T13:19:34.800Z,99810.52
2022-10-23T13:20:53.863Z,99823.30
2022-10-23T13:23:34.125Z,99812.41
2022-10-23T13:26:01.616Z,99811.86
2022-10-23T13:28:50.002Z,99824.66
2022-10-23T13:31:17.739Z,99816.31
2022-10-23T13:34:08.274Z,99815.20
2022-10-23T13:36:39.111Z,99829.61
2022-10-23T13:37:49.288Z,99839.86
2022-10-23T13:39:11.780Z,99834.86
2022-10-23T13:41:45.742Z,99838.20
2022-10-23T13:45:30.307Z,99837.17
2022-10-23T13:46:39.475Z,99840.27
2022-10-23T13:49:03.605Z,99843.95
2022-10-23T13:50:14.624Z,99848.91
2022-10-23T13:51:29.963Z,99849.48
2022-10-23T13:52:39.773Z,99850.09
2022-10-23T13:53:49.907Z,99854.03
2022-10-23T13:54:59.614Z,99858.89
2022-10-23T13:56:11.950Z,99857.70
2022-10-23T13:58:35.467Z,99858.95
2022-10-23T13:59:45.208Z,99864.76
2022-10-23T14:00:54.407Z,99864.34
2022-10-23T14:03:22.430Z,99865.81
2022-10-23T14:04:31.050Z,99866.92
2022-10-23T14:05:40.747Z,99868.03
2022-10-23T14:08:05.550Z,99878.14
2022-10-23T14:10:33.886Z,99869.73
2022-10-23T14:12:59.353Z,99874.73
2022-10-23T14:15:23.863Z,99877.48
2022-10-23T14:17:49.992Z,99882.70
2022-10-23T14:20:13.852Z,99883.09
2022-10-23T14:22:39.368Z,99875.52
2022-10-23T14:25:05.881Z,99880.55
2022-10-23T14:27:36.333Z,99887.30
2022-10-23T14:30:01.118Z,99884.11
2022-10-23T14:32:32.605Z,99882.89
2022-10-23T14:34:57.404Z,99893.18
2022-10-23T14:37:22.889Z,99890.61
2022-10-23T14:38:31.667Z,99896.37
2022-10-23T14:39:44.165Z,99901.63
2022-10-23T14:42:08.704Z,99905.05
2022-10-23T14:43:17.428Z,99909.79
2022-10-23T14:44:27.286Z,99915.30
2022-10-23T14:45:37.748Z,99918.00
2022-10-23T14:46:46.461Z,99910.18
2022-10-23T14:47:56.003Z,99913.75
2022-10-23T14:50:21.333Z,99910.44
2022-10-23T14:52:45.427Z,99916.95
2022-10-23T14:55:20.072Z,99929.91
2022-10-23T14:57:47.722Z,99921.71
2022-10-23T15:00:15.565Z,99915.60
2022-10-23T15:02:39.424Z,99917.04
2022-10-23T15:05:06.410Z,99918.26
2022-10-23T15:07:31.605Z,99927.92
2022-10-23T15:09:57.196Z,99926.25
2022-10-23T15:11:10.329Z,99930.16
2022-10-23T15:12:19.026Z,99930.29
2022-10-23T15:14:43.127Z,99920.86
2022-10-23T15:16:05.844Z,99936.27
2022-10-23T15:18:50.216Z,99916.44
2022-10-23T15:21:19.582Z,99934.83
2022-10-23T15:23:45.895Z,99931.89
2022-10-23T15:26:18.995Z,99940.06
2022-10-23T15:28:43.678Z,99941.41
2022-10-23T15:32:28.251Z,99943.00
2022-10-23T15:35:13.282Z,99954.39
2022-10-23T15:36:23.019Z,99952.86
2022-10-23T15:38:49.546Z,99950.56
2022-10-23T15:41:16.901Z,99947.16
2022-10-23T15:43:42.176Z,99955.37
2022-10-23T15:44:51.997Z,99955.75
2022-10-23T15:47:16.210Z,99956.39
2022-10-23T15:49:40.889Z,99954.53
2022-10-23T15:52:05.930Z,99950.50
2022-10-23T15:54:32.801Z,99956.22
2022-10-23T15:56:57.275Z,99957.57
2022-10-23T15:59:23.288Z,99963.83
2022-10-23T16:01:50.260Z,99954.14
2022-10-23T16:04:15.722Z,99959.98
2022-10-23T16:06:41.571Z,99958.78
2022-10-23T16:09:07.287Z,99963.84
2022-10-23T16:11:35.519Z,99957.23
2022-10-23T16:14:04.615Z,99973.98
2022-10-23T16:16:48.352Z,99972.63
2022-10-23T16:19:13.456Z,99973.97
2022-10-23T16:21:38.115Z,99971.52
2022-10-23T16:24:06.662Z,99980.44
2022-10-23T16:25:16.618Z,99988.77
2022-10-23T16:27:42.174Z,99978.53
2022-10-23T16:30:23.918Z,99980.64
2022-10-23T16:32:50.261Z,99986.74
2022-10-23T16:35:17.142Z,99989.19
2022-10-23T16:37:44.309Z,99989.94
2022-10-23T16:40:12.276Z,99986.98
2022-10-23T16:42:57.234Z,99998.72
2022-10-23T16:45:24.093Z,100000.38
2022-10-23T16:47:50.591Z,99996.09
2022-10-23T16:50:16.208Z,100002.86
2022-10-23T16:52:42.358Z,99993.08
2022-10-23T16:55:09.056Z,99986.99
2022-10-23T16:57:37.279Z,99994.58
2022-10-23T17:00:02.692Z,99995.92
2022-10-23T17:02:29.579Z,99998.11
2022-10-23T17:04:58.682Z,99989.80
2022-10-23T17:07:26.655Z,100005.20
2022-10-23T17:09:53.484Z,100002.13
2022-10-23T17:12:19.891Z,100003.73
2022-10-23T17:15:06.311Z,100009.25
2022-10-23T17:17:37.159Z,99999.38
2022-10-23T17:20:03.655Z,100004.52
2022-10-23T17:22:31.495Z,100004.76
2022-10-23T17:24:58.322Z,100005.85
2022-10-23T17:27:23.661Z,100000.08
2022-10-23T17:29:49.150Z,100000.33
2022-10-23T17:32:13.976Z,100009.12
2022-10-23T17:34:38.846Z,100003.36
2022-10-23T17:37:03.212Z,100002.06
2022-10-23T17:39:33.431Z,100011.25
2022-10-23T17:42:01.334Z,100009.05
2022-10-23T17:44:26.597Z,100005.42
2022-10-23T17:46:55.389Z,100005.02
2022-10-23T17:49:20.892Z,100005.98
2022-10-23T17:51:47.225Z,100002.31
2022-10-23T17:54:12.852Z,100008.93
2022-10-23T17:55:22.530Z,100018.09
2022-10-23T17:57:49.786Z,100012.70
2022-10-23T18:00:17.131Z,100010.10
2022-10-23T18:02:43.360Z,100005.72
2022-10-23T18:05:10.847Z,100006.36
2022-10-23T18:07:40.955Z,100000.22
2022-10-23T18:10:07.757Z,100005.42
2022-10-23T18:12:55.511Z,100005.36
2022-10-23T18:15:21.737Z,100003.80
2022-10-23T18:17:46.735Z,100013.70
2022-10-23T18:20:14.911Z,100011.25
2022-10-23T18:22:41.194Z,100009.05
2022-10-23T18:25:07.923Z,100014.79
2022-10-23T18:27:40.886Z,100009.78
2022-10-23T18:30:10.101Z,100013.37
2022-10-23T18:32:37.141Z,100007.72
2022-10-23T18:35:02.345Z,100002.21
2022-10-23T18:37:39.010Z,100002.94
2022-10-23T18:39:59.527Z,100006.73
2022-10-23T18:42:23.586Z,100003.42
2022-10-23T18:43:43.198Z,100029.36
2022-10-23T18:47:29.062Z,100019.84
2022-10-23T18:49:53.593Z,100015.16
2022-10-23T18:52:18.181Z,100026.98
2022-10-23T18:54:45.683Z,100023.64
2022-10-23T18:57:09.961Z,100024.12
2022-10-23T18:59:34.313Z,100017.03
2022-10-23T19:01:58.956Z,100025.02
2022-10-23T19:04:25.643Z,100018.25
2022-10-23T19:06:50.805Z,100026.13
2022-10-23T19:09:16.652Z,100027.58
2022-10-23T19:11:45.035Z,100025.95
2022-10-23T19:14:09.934Z,100025.23
2022-10-23T19:16:37.216Z,100036.01
2022-10-23T19:19:27.927Z,100033.91
2022-10-23T19:21:54.546Z,100024.41
2022-10-23T19:24:29.785Z,100022.91
2022-10-23T19:26:59.095Z,100028.67
2022-10-23T19:29:26.299Z,100033.95
2022-10-23T19:31:51.338Z,100026.00
2022-10-23T19:34:19.342Z,100035.54
2022-10-23T19:36:44.704Z,100027.42
2022-10-23T19:39:09.319Z,100017.86
2022-10-23T19:41:35.930Z,100028.64
2022-10-23T19:43:59.849Z,100025.95
2022-10-23T19:46:30.205Z,100023.13
2022-10-23T19:48:54.905Z,100022.55
2022-10-23T19:51:22.298Z,100022.41
2022-10-23T19:53:46.539Z,100023.30
2022-10-23T19:56:13.388Z,100021.07
2022-10-23T19:58:37.627Z,100031.40
2022-10-23T20:01:14.864Z,100030.74
2022-10-23T20:03:42.262Z,100032.94
2022-10-23T20:06:29.417Z,100041.78
2022-10-23T20:08:54.354Z,100039.08
2022-10-23T20:11:24.091Z,100038.20
2022-10-23T20:13:50.534Z,100031.74
2022-10-23T20:16:20.948Z,100036.16
2022-10-23T20:18:45.083Z,100040.06
2022-10-23T20:21:09.420Z,100045.59
2022-10-23T20:23:34.275Z,100040.21
2022-10-23T20:26:06.828Z,100049.49
2022-10-23T20:28:33.421Z,100050.96
2022-10-23T20:30:58.321Z,100054.13
2022-10-23T20:32:07.546Z,100061.23
2022-10-23T20:34:39.232Z,100061.16
2022-10-23T20:37:03.580Z,100058.36
2022-10-23T20:39:29.037Z,100051.97
2022-10-23T20:41:54.938Z,100052.34
2022-10-23T20:44:19.305Z,100062.01
2022-10-23T20:46:44.952Z,100061.55
2022-10-23T20:49:09.242Z,100051.73
2022-10-23T20:50:19.435Z,100061.91
2022-10-23T20:52:42.944Z,100057.02
2022-10-23T20:55:11.288Z,100061.16
2022-10-23T20:57:41.948Z,100053.44
2022-10-23T21:00:08.242Z,100057.86
2022-10-23T21:02:33.311Z,100058.59
2022-10-23T21:04:58.293Z,100057.86
2022-10-23T21:07:28.262Z,100052.46
2022-10-23T21:09:53.666Z,100044.88
2022-10-23T21:12:18.201Z,100056.00
2022-10-23T21:14:45.295Z,100056.61
2022-10-23T21:15:55.992Z,100060.80
2022-10-23T21:18:34.199Z,100055.02
2022-10-23T21:20:59.229Z,100062.50
2022-10-23T21:23:23.242Z,100061.29
2022-10-23T21:28:13.871Z,100053.44
2022-10-23T21:30:41.081Z,100050.52
2022-10-23T21:33:11.177Z,100049.50
2022-10-23T21:35:37.831Z,100050.23
2022-10-23T21:38:22.670Z,100053.55
2022-10-23T21:40:46.469Z,100054.80
2022-10-23T21:43:11.296Z,100053.93
2022-10-23T21:44:20.898Z,100069.27
2022-10-23T21:46:48.083Z,100062.75
2022-10-23T21:49:11.636Z,100061.65
2022-10-23T21:51:37.980Z,100064.70
2022-10-23T21:54:11.415Z,100068.73
2022-10-23T21:57:55.885Z,100056.45
2022-10-23T22:00:26.049Z,100059.27
2022-10-23T22:02:50.504Z,100059.40
2022-10-23T22:05:15.092Z,100068.88
2022-10-23T22:07:47.616Z,100052.20
2022-10-23T22:08:58.457Z,100054.06
2022-10-23T22:11:25.712Z,100053.33
2022-10-23T22:13:50.245Z,100055.03
2022-10-23T22:16:15.524Z,100065.55
2022-10-23T22:18:41.336Z,100063.17
2022-10-23T22:21:08.508Z,100057.52
2022-10-23T22:23:33.495Z,100059.27
2022-10-23T22:25:59.688Z,100060.15
2022-10-23T22:28:24.988Z,100077.84
2022-10-23T22:30:50.202Z,100077.73
2022-10-23T22:33:16.404Z,100070.49
2022-10-23T22:35:46.336Z,100077.36
2022-10-23T22:38:12.363Z,100078.20
2022-10-23T22:40:41.899Z,100070.73
2022-10-23T22:43:06.144Z,100071.42
2022-10-23T22:45:31.098Z,100070.69
2022-10-23T22:47:57.130Z,100086.52
2022-10-23T22:50:22.368Z,100086.29
2022-10-23T22:52:46.638Z,100078.80
2022-10-23T22:55:14.652Z,100074.84
2022-10-23T22:57:47.436Z,100076.19
2022-10-23T23:00:16.179Z,100089.36
2022-10-23T23:02:45.592Z,100085.70
2022-10-23T23:05:12.497Z,100090.71
2022-10-23T23:07:38.828Z,100087.87
2022-10-23T23:10:06.168Z,100095.72
2022-10-23T23:12:36.322Z,100089.42
2022-10-23T23:15:04.720Z,100100.68
2022-10-23T23:17:44.584Z,100089.03
2022-10-23T23:20:10.802Z,100092.38
2022-10-23T23:22:35.464Z,100090.67
2022-10-23T23:25:01.285Z,100104.81
2022-10-23T23:27:25.035Z,100093.14
2022-10-23T23:29:48.894Z,100098.30
2022-10-23T23:32:27.820Z,100102.69
2022-10-23T23:34:53.847Z,100105.72
2022-10-23T23:37:23.033Z,100109.03
2022-10-23T23:39:47.525Z,100107.83
2022-10-23T23:42:12.286Z,100107.49
2022-10-23T23:44:41.942Z,100109.20
2022-10-23T23:47:03.475Z,100106.88
2022-10-23T23:49:48.627Z,100104.17
2022-10-23T23:52:13.234Z,100109.45
2022-10-23T23:54:37.929Z,100109.30
2022-10-23T23:57:03.406Z,100104.97
2022-10-23T23:59:29.662Z,100096.39
